logo
Rechercher aéroport 
image banner adimage banner adimage banner ad
image banner ad

NSTU - Pago Pago Intl

Situé à Pago Pago, Samoa

ICAO - PPG, IATA - PPG

Données fournies par Airmate  

Information générale

Coordonnées: S14°19'54" W170°42'41"
Élévation : 31 feet MSL.
Variation magnétique : 12° East
Voir autres Aéroports à (unassigned)

Données opérationnelles

Special qualification required
Heure actuelle UTC:
Heure actuelle locale:
Météo
METAR: NSTU 130950Z VRB05KT 10SM FEW020 SCT220 26/25 A2980 RMK SLP091 T02620245
TAF: NSTU 062327Z 0700/0724 05008KT P6SM SCT015 SCT040 SCT200
Voir NOTAMs / SUP AIP / TFR affectant cet aéroport [VIEW]
Fréquences de communication: [VIEW]

Pistes:

Identifiant RWYQFULongueur (ft)Largeur (ft)SurfaceLDA (ft)
0560°10001150ASPH
23240°10001150ASPH
0890°3801100ASPH
26270°3801100ASPH

Coordonnées de l'aéroport

Adresse: Pago Pago Samoa

Vue satellite de NSTU